Time;durP1;ratioP1;P1;durP2;ratioP2;P2;SDS_P1;SDS_P2;PMS_P1;PMS_P2;Temp;Humidity;BMP_temperature;BMP_pressure;BME280_temperature;BME280_humidity;BME280_pressure;Samples;Min_cycle;Max_cycle;Signal;HPM_P1;HPM_P2
2021/05/06 00:33:18;;;;;;;4.40;3.70;;;9.40;91.40;;;;;;6241457;23;20499;-84
2021/05/06 00:35:44;;;;;;;5.10;4.03;;;9.30;91.60;;;;;;6221884;23;20416;-82
2021/05/06 00:38:17;;;;;;;4.67;4.03;;;9.40;91.60;;;;;;6221481;23;20404;-82
2021/05/06 00:54:15;;;;;;;3.80;3.37;;;8.90;93.30;;;;;;6248408;23;20455;-82
2021/05/06 00:59:43;;;;;;;3.47;3.17;;;8.80;93.40;;;;;;6201190;23;20442;-83
2021/05/06 01:05:04;;;;;;;3.50;3.20;;;8.70;94.00;;;;;;6240213;23;20479;-82
2021/05/06 01:07:44;;;;;;;5.53;3.40;;;8.60;94.30;;;;;;6245711;23;20431;-82
2021/05/06 01:10:36;;;;;;;2.93;2.50;;;8.40;94.60;;;;;;6225815;23;20526;-83
2021/05/06 01:13:03;;;;;;;4.50;3.40;;;8.50;94.80;;;;;;6253224;23;20412;-82
2021/05/06 01:15:30;;;;;;;3.60;3.30;;;8.40;94.80;;;;;;6252678;23;20511;-82
2021/05/06 01:18:15;;;;;;;4.93;2.23;;;8.50;94.70;;;;;;6254279;23;20446;-82
2021/05/06 01:20:44;;;;;;;4.63;3.63;;;8.30;94.90;;;;;;6246882;23;20538;-84
2021/05/06 01:23:11;;;;;;;3.07;2.77;;;8.30;95.00;;;;;;6219140;23;20503;-84
2021/05/06 01:25:37;;;;;;;3.17;2.27;;;8.20;95.30;;;;;;6241552;23;20416;-83
2021/05/06 01:28:10;;;;;;;2.30;2.00;;;8.20;95.30;;;;;;6217420;23;20412;-83
2021/05/06 01:30:50;;;;;;;3.13;2.10;;;8.30;95.30;;;;;;6255298;23;20432;-81
2021/05/06 01:33:31;;;;;;;3.40;2.60;;;8.20;95.50;;;;;;6232505;23;20446;-81
2021/05/06 01:36:15;;;;;;;2.13;1.93;;;8.20;95.40;;;;;;6231294;23;20412;-80
2021/05/06 01:39:21;;;;;;;2.97;2.30;;;8.10;95.40;;;;;;6230698;22;20650;-81
2021/05/06 01:42:06;;;;;;;3.17;2.10;;;8.00;95.80;;;;;;6233225;23;20447;-81
2021/05/06 01:45:11;;;;;;;2.13;2.00;;;7.90;96.10;;;;;;6232971;23;20419;-80
2021/05/06 01:47:53;;;;;;;1.70;1.60;;;8.00;96.00;;;;;;6258056;23;21192;-83
2021/05/06 01:51:09;;;;;;;3.53;2.17;;;8.00;95.90;;;;;;6230470;23;20460;-83
2021/05/06 01:58:57;;;;;;;1.90;1.80;;;8.10;95.90;;;;;;6258238;23;20444;-83
2021/05/06 02:01:28;;;;;;;5.07;2.10;;;8.00;95.90;;;;;;6231327;23;20536;-82
2021/05/06 02:03:58;;;;;;;2.50;2.30;;;7.90;96.10;;;;;;6232658;23;20396;-83
2021/05/06 02:06:39;;;;;;;4.40;2.00;;;8.00;96.30;;;;;;6232430;23;20400;-82
2021/05/06 02:09:07;;;;;;;2.97;1.70;;;8.10;96.00;;;;;;6231970;23;20461;-83
2021/05/06 02:11:41;;;;;;;3.90;1.70;;;8.10;96.00;;;;;;6233046;23;20373;-81
2021/05/06 02:14:12;;;;;;;1.97;1.70;;;8.00;95.90;;;;;;6257792;23;20463;-81
2021/05/06 02:16:43;;;;;;;2.90;1.80;;;8.00;96.10;;;;;;6232240;23;20401;-80
2021/05/06 02:19:24;;;;;;;2.50;2.30;;;7.90;96.40;;;;;;6233926;23;20797;-81
2021/05/06 02:21:53;;;;;;;1.63;1.40;;;7.90;96.10;;;;;;6232428;23;20416;-83
2021/05/06 02:24:22;;;;;;;1.60;1.50;;;7.90;96.10;;;;;;6229343;23;20415;-82
2021/05/06 02:26:53;;;;;;;2.17;1.83;;;8.00;95.90;;;;;;6253176;23;20453;-81
2021/05/06 02:29:24;;;;;;;1.50;1.40;;;7.90;96.00;;;;;;6225994;23;20428;-80
2021/05/06 02:32:02;;;;;;;2.43;1.73;;;7.90;96.20;;;;;;6227701;23;20423;-80
2021/05/06 02:34:29;;;;;;;1.70;1.60;;;7.80;96.30;;;;;;6250588;23;20649;-81
2021/05/06 02:37:01;;;;;;;2.60;2.00;;;7.80;96.50;;;;;;6227030;23;20430;-80
2021/05/06 02:39:33;;;;;;;1.40;1.37;;;7.90;96.40;;;;;;6220530;23;20435;-84
2021/05/06 02:42:03;;;;;;;1.60;1.50;;;8.00;96.30;;;;;;6218666;23;20478;-84
2021/05/06 02:44:37;;;;;;;2.13;1.80;;;8.00;96.10;;;;;;6249447;23;20442;-80
2021/05/06 02:47:06;;;;;;;1.80;1.70;;;8.10;96.10;;;;;;6226891;23;20420;-84
2021/05/06 02:49:47;;;;;;;2.90;1.73;;;8.10;95.90;;;;;;6251707;23;20436;-83
2021/05/06 02:52:36;;;;;;;1.93;1.40;;;8.10;95.90;;;;;;6254603;23;20572;-81
2021/05/06 03:03:42;;;;;;;1.53;1.43;;;8.20;95.90;;;;;;6249656;23;20410;-83
2021/05/06 03:06:16;;;;;;;2.57;1.80;;;8.10;95.80;;;;;;6254653;23;20530;-80
2021/05/06 03:09:00;;;;;;;1.60;1.50;;;8.30;95.70;;;;;;6234226;23;20455;-82
2021/05/06 03:11:46;;;;;;;3.20;1.60;;;8.30;95.60;;;;;;6234157;23;20967;-81
2021/05/06 03:22:43;;;;;;;4.90;2.27;;;8.30;95.30;;;;;;6199910;23;20527;-80
2021/05/06 03:25:19;;;;;;;3.57;2.40;;;8.30;95.60;;;;;;6261400;23;20407;-81
2021/05/06 03:41:36;;;;;;;2.17;1.70;;;8.20;95.70;;;;;;6254711;23;20404;-82
2021/05/06 03:42:20;;;;;;;4.50;1.50;;;8.20;95.70;;;;;;6261805;23;20447;-82
2021/05/06 03:45:04;;;;;;;1.53;1.43;;;8.20;95.90;;;;;;6260457;23;20517;-80
2021/05/06 03:50:52;;;;;;;3.43;2.00;;;8.30;95.70;;;;;;6267552;22;20416;-81
2021/05/06 04:27:48;;;;;;;3.73;3.20;;;8.50;95.20;;;;;;6263772;22;20399;-80
2021/05/06 04:30:33;;;;;;;3.40;2.80;;;8.40;95.30;;;;;;6259661;23;20442;-81
2021/05/06 04:36:02;;;;;;;4.40;2.63;;;8.60;95.00;;;;;;6246135;23;20438;-81
2021/05/06 04:38:47;;;;;;;6.57;2.50;;;8.70;94.80;;;;;;6220138;23;20972;-80
2021/05/06 04:55:29;;;;;;;4.73;2.07;;;8.50;95.30;;;;;;6244952;23;20418;-82
2021/05/06 05:24:02;;;;;;;2.43;2.00;;;8.70;95.60;;;;;;6260439;22;20462;-83
2021/05/06 05:26:29;;;;;;;5.63;1.87;;;8.70;95.70;;;;;;6215378;23;20493;-82
2021/05/06 05:29:13;;;;;;;2.57;2.37;;;8.80;95.70;;;;;;6240470;23;20479;-83
2021/05/06 05:32:01;;;;;;;2.90;1.70;;;8.80;95.60;;;;;;6218352;23;20836;-84
2021/05/06 05:37:45;;;;;;;5.27;1.73;;;8.70;95.60;;;;;;6249568;23;20415;-82
2021/05/06 05:40:34;;;;;;;4.60;4.20;;;8.70;95.60;;;;;;6229493;23;20438;-83
2021/05/06 05:54:36;;;;;;;3.47;3.17;;;8.80;95.40;;;;;;6245380;23;20412;-82
2021/05/06 05:57:09;;;;;;;7.23;3.67;;;8.80;95.50;;;;;;6250307;23;20448;-84
2021/05/06 05:59:40;;;;;;;6.67;3.70;;;8.80;95.30;;;;;;6243764;23;20433;-83
2021/05/06 06:02:08;;;;;;;8.27;5.80;;;8.90;95.40;;;;;;6220979;23;20475;-80
2021/05/06 06:04:53;;;;;;;6.10;4.10;;;8.90;95.20;;;;;;6219476;23;20443;-84
2021/05/06 06:07:43;;;;;;;6.80;4.60;;;9.20;95.10;;;;;;6257870;23;20403;-81
2021/05/06 06:10:32;;;;;;;5.30;3.80;;;9.20;94.40;;;;;;6253431;23;20440;-81
2021/05/06 06:13:10;;;;;;;5.57;4.00;;;9.20;94.60;;;;;;6232976;23;20400;-83
2021/05/06 06:15:55;;;;;;;7.60;4.90;;;9.40;94.30;;;;;;6230382;23;20404;-82
2021/05/06 06:21:25;;;;;;;6.10;4.73;;;9.90;92.90;;;;;;6248780;23;20511;-82
2021/05/06 06:27:00;;;;;;;6.03;5.13;;;9.40;93.40;;;;;;6151984;23;20962;-80
2021/05/06 06:29:35;;;;;;;6.90;4.40;;;9.40;93.80;;;;;;6216074;23;20840;-83
2021/05/06 06:32:29;;;;;;;5.00;4.50;;;9.40;93.70;;;;;;6222279;23;20403;-80
2021/05/06 06:35:08;;;;;;;6.40;4.33;;;9.50;93.70;;;;;;6218957;23;21074;-82
2021/05/06 06:37:37;;;;;;;8.23;4.13;;;9.70;93.60;;;;;;6220002;23;20415;-84
2021/05/06 06:40:15;;;;;;;6.13;4.40;;;10.00;92.40;;;;;;6219935;23;20439;-82
2021/05/06 06:43:09;;;;;;;6.90;3.93;;;10.30;91.70;;;;;;6244713;23;20502;-82
2021/05/06 06:45:39;;;;;;;4.83;3.97;;;10.30;91.20;;;;;;6243336;23;20418;-84
2021/05/06 06:48:12;;;;;;;6.40;4.43;;;10.40;91.20;;;;;;6221720;23;20483;-81
2021/05/06 06:50:41;;;;;;;7.33;3.80;;;10.40;91.20;;;;;;6245725;23;20768;-81
2021/05/06 06:53:25;;;;;;;4.17;3.77;;;10.50;90.90;;;;;;6219485;23;20400;-81
2021/05/06 06:56:07;;;;;;;10.87;4.90;;;11.30;90.10;;;;;;6256375;23;20439;-81
2021/05/06 07:02:02;;;;;;;4.73;3.87;;;10.80;89.00;;;;;;6256172;22;20432;-81
2021/05/06 07:04:49;;;;;;;6.53;4.03;;;10.70;89.40;;;;;;6220387;23;20411;-81
2021/05/06 07:10:39;;;;;;;3.70;3.07;;;11.20;89.00;;;;;;6260671;22;20546;-84
2021/05/06 07:13:17;;;;;;;4.90;2.80;;;11.60;87.20;;;;;;6226684;23;20716;-84
2021/05/06 07:16:12;;;;;;;4.37;3.50;;;11.60;87.00;;;;;;6213522;23;20388;-80
2021/05/06 07:18:43;;;;;;;6.93;3.50;;;11.40;85.90;;;;;;6248069;23;20420;-83
2021/05/06 07:21:14;;;;;;;4.77;3.13;;;11.30;86.30;;;;;;6248140;23;20454;-82
2021/05/06 07:23:49;;;;;;;4.17;2.70;;;11.30;86.90;;;;;;6220323;23;20458;-82
2021/05/06 07:26:27;;;;;;;4.07;2.67;;;11.70;85.20;;;;;;6252218;23;20478;-81
2021/05/06 07:29:01;;;;;;;3.20;2.90;;;12.00;83.80;;;;;;6244329;23;20428;-84
2021/05/06 07:31:32;;;;;;;5.40;3.97;;;11.90;82.80;;;;;;6254144;23;20439;-83
2021/05/06 07:34:06;;;;;;;4.90;3.13;;;11.90;83.30;;;;;;6245661;23;20416;-84
2021/05/06 07:36:42;;;;;;;4.30;2.90;;;11.90;82.70;;;;;;6258570;22;20395;-83
2021/05/06 07:39:18;;;;;;;3.50;2.30;;;12.30;82.10;;;;;;6241576;22;20426;-82
2021/05/06 07:41:59;;;;;;;6.23;2.80;;;12.40;79.10;;;;;;6233835;23;20443;-83
2021/05/06 07:44:51;;;;;;;3.70;2.40;;;12.90;77.80;;;;;;6237664;22;20406;-81
2021/05/06 07:47:37;;;;;;;;;;;;;;;;;;;;;
2021/05/06 07:50:19;;;;;;;3.03;2.40;;;13.40;75.00;;;;;;6266294;22;20443;-84
2021/05/06 07:56:02;;;;;;;3.10;1.90;;;15.50;69.80;;;;;;6247812;23;20439;-84
2021/05/06 08:01:55;;;;;;;2.87;2.57;;;15.30;62.00;;;;;;6159194;23;20442;-84
2021/05/06 08:04:49;;;;;;;3.03;2.10;;;13.90;65.40;;;;;;6154991;23;20429;-83
2021/05/06 08:07:23;;;;;;;2.63;2.30;;;13.30;69.20;;;;;;6155269;23;20779;-84
2021/05/06 08:09:59;;;;;;;3.50;2.30;;;13.70;68.20;;;;;;6128978;23;20942;-84
2021/05/06 08:12:54;;;;;;;3.03;2.17;;;12.70;71.60;;;;;;6128675;23;20411;-84
2021/05/06 08:15:45;;;;;;;2.63;2.23;;;12.40;74.10;;;;;;6152169;23;20419;-82
2021/05/06 08:18:37;;;;;;;3.27;1.90;;;13.10;73.60;;;;;;6132247;23;20411;-82
2021/05/06 08:21:14;;;;;;;10.23;1.90;;;13.20;70.90;;;;;;6154922;23;20425;-84
2021/05/06 08:23:51;;;;;;;2.23;1.60;;;13.50;70.70;;;;;;6130380;23;20417;-84
2021/05/06 08:26:44;;;;;;;1.60;1.50;;;15.90;64.40;;;;;;6136100;23;20399;-83
2021/05/06 08:29:38;;;;;;;1.93;1.33;;;17.80;56.10;;;;;;6131515;23;20485;-85
2021/05/06 08:32:05;;;;;;;2.70;1.90;;;18.60;53.70;;;;;;6155366;23;20395;-84
2021/05/06 08:35:22;;;;;;;3.70;2.40;;;16.90;53.60;;;;;;6134196;23;20427;-83
2021/05/06 08:37:56;;;;;;;4.73;2.77;;;15.40;56.20;;;;;;6155858;23;20403;-84
2021/05/06 08:40:27;;;;;;;1.60;1.50;;;14.90;59.30;;;;;;6132224;23;20871;-83
2021/05/06 08:42:59;;;;;;;1.60;1.50;;;15.80;57.50;;;;;;6158663;23;21338;-82
2021/05/06 08:45:42;;;;;;;1.67;1.43;;;15.20;56.80;;;;;;6160606;23;20504;-83
2021/05/06 08:48:20;;;;;;;2.57;1.40;;;15.10;57.60;;;;;;6131003;23;20870;-84
2021/05/06 08:51:04;;;;;;;1.37;1.27;;;14.70;58.00;;;;;;6132662;23;20429;-83
2021/05/06 08:53:37;;;;;;;1.67;1.20;;;14.80;57.30;;;;;;6156902;23;20415;-81
2021/05/06 08:56:16;;;;;;;3.57;1.97;;;14.80;56.80;;;;;;6154865;23;20422;-82
2021/05/06 09:02:26;;;;;;;1.67;1.30;;;14.20;58.60;;;;;;6195174;23;20453;-82
2021/05/06 09:05:07;;;;;;;2.37;1.57;;;14.10;58.00;;;;;;6194367;23;20437;-82
2021/05/06 09:07:55;;;;;;;3.43;1.53;;;13.70;58.80;;;;;;6186651;23;20408;-83
2021/05/06 09:11:00;;;;;;;10.10;3.40;;;13.70;58.80;;;;;;6184035;23;21079;-84
2021/05/06 09:14:09;;;;;;;5.33;1.87;;;14.90;58.00;;;;;;6165282;23;20394;-83
2021/05/06 09:16:46;;;;;;;3.60;1.23;;;15.30;56.10;;;;;;6185229;23;20414;-83
2021/05/06 09:19:30;;;;;;;2.20;0.90;;;15.10;56.00;;;;;;6164576;23;20434;-83
2021/05/06 09:22:20;;;;;;;2.90;1.40;;;14.50;56.20;;;;;;6186235;23;20452;-83
2021/05/06 09:25:01;;;;;;;3.20;1.30;;;14.20;56.20;;;;;;6160507;23;20410;-84
2021/05/06 09:27:48;;;;;;;1.70;1.60;;;13.80;57.30;;;;;;6187996;23;20414;-85
2021/05/06 09:30:19;;;;;;;2.80;1.60;;;13.40;58.30;;;;;;6162336;23;20572;-82
2021/05/06 09:33:17;;;;;;;2.30;1.40;;;13.40;59.10;;;;;;6179788;23;20786;-84
2021/05/06 09:39:09;;;;;;;2.30;1.20;;;16.60;52.60;;;;;;6186905;23;20572;-83
2021/05/06 09:42:55;;;;;;;1.53;1.40;;;16.60;51.10;;;;;;6186291;23;20943;-83
2021/05/06 09:45:55;;;;;;;;;;;;;;;;;;;;;
2021/05/06 09:49:18;;;;;;;1.70;1.27;;;16.80;50.10;;;;;;6106775;23;20428;-83
2021/05/06 09:52:43;;;;;;;3.40;1.43;;;16.60;50.30;;;;;;6196286;23;20422;-85
2021/05/06 09:55:34;;;;;;;1.50;1.10;;;16.50;49.80;;;;;;6150150;23;20424;-83
2021/05/06 09:58:44;;;;;;;2.30;1.23;;;17.20;47.40;;;;;;6186465;23;20426;-82
2021/05/06 10:01:45;;;;;;;1.37;0.90;;;17.10;47.30;;;;;;6160932;23;20448;-83
2021/05/06 10:04:37;;;;;;;1.30;1.00;;;19.60;44.70;;;;;;6180394;23;20410;-84
2021/05/06 10:07:20;;;;;;;1.70;1.07;;;19.40;42.60;;;;;;6156001;23;20905;-85
2021/05/06 10:10:13;;;;;;;1.70;1.10;;;19.00;42.00;;;;;;6156170;23;20622;-83
2021/05/06 10:13:29;;;;;;;1.97;1.70;;;19.70;41.90;;;;;;6178764;23;20403;-85
2021/05/06 10:16:11;;;;;;;1.67;1.30;;;20.30;39.10;;;;;;6181352;23;20402;-84
2021/05/06 10:19:01;;;;;;;2.83;1.00;;;19.40;39.50;;;;;;6162839;23;20429;-81
2021/05/06 10:21:48;;;;;;;2.43;1.30;;;18.50;41.10;;;;;;6184492;23;20438;-84
2021/05/06 10:24:35;;;;;;;1.60;1.50;;;18.50;40.80;;;;;;6180464;23;20412;-82
2021/05/06 10:27:18;;;;;;;4.53;2.10;;;17.50;42.10;;;;;;6182112;23;20422;-84
2021/05/06 10:30:25;;;;;;;1.77;1.20;;;16.70;43.70;;;;;;6157943;23;20430;-84
2021/05/06 10:33:07;;;;;;;1.13;0.90;;;16.30;44.40;;;;;;6181883;23;20406;-82
2021/05/06 10:36:22;;;;;;;1.63;1.07;;;16.10;45.00;;;;;;6179983;23;20460;-85
2021/05/06 10:43:36;;;;;;;3.00;1.30;;;16.60;43.50;;;;;;6157212;23;20516;-83
2021/05/06 10:49:55;;;;;;;2.17;1.30;;;18.50;41.80;;;;;;6192092;23;20444;-85
2021/05/06 10:53:17;;;;;;;1.13;1.03;;;18.10;40.30;;;;;;6172774;23;20536;-84
2021/05/06 10:56:54;;;;;;;2.03;1.23;;;17.40;41.60;;;;;;6186028;23;20457;-84
2021/05/06 11:00:30;;;;;;;1.93;1.57;;;17.50;41.30;;;;;;6165417;23;20425;-82
2021/05/06 11:03:29;;;;;;;1.20;1.10;;;17.20;42.60;;;;;;6188526;23;20442;-83
2021/05/06 11:06:48;;;;;;;1.33;1.07;;;17.10;41.00;;;;;;6153678;23;20410;-83
2021/05/06 11:10:00;;;;;;;2.50;2.13;;;17.80;39.50;;;;;;6170134;23;20441;-84
2021/05/06 11:13:01;;;;;;;2.00;1.00;;;17.50;40.00;;;;;;6195706;23;20476;-84
2021/05/06 11:16:24;;;;;;;3.13;1.20;;;17.10;39.70;;;;;;6171006;23;20473;-85
2021/05/06 11:19:01;;;;;;;4.83;1.20;;;16.50;40.70;;;;;;6204442;23;20428;-83
2021/05/06 11:21:55;;;;;;;1.10;1.00;;;16.10;41.20;;;;;;6206559;23;20509;-83
2021/05/06 11:24:39;;;;;;;2.00;1.23;;;16.30;41.10;;;;;;6179940;23;20434;-83
2021/05/06 11:27:49;;;;;;;3.23;1.50;;;16.30;41.90;;;;;;6181580;23;20390;-82
2021/05/06 11:31:05;;;;;;;2.70;1.10;;;16.00;43.00;;;;;;6208524;23;20418;-83
2021/05/06 11:37:30;;;;;;;1.67;1.00;;;16.60;40.50;;;;;;6153698;23;20417;-84
2021/05/06 11:40:26;;;;;;;1.60;1.47;;;15.80;42.30;;;;;;6190511;23;20501;-82
2021/05/06 11:42:56;;;;;;;1.37;1.20;;;15.90;42.70;;;;;;6165348;23;20449;-84
2021/05/06 11:49:32;;;;;;;2.07;1.70;;;16.10;42.30;;;;;;6162778;23;20517;-83
2021/05/06 11:52:11;;;;;;;1.57;1.30;;;16.30;42.40;;;;;;6171669;23;20497;-84
2021/05/06 11:55:58;;;;;;;1.30;1.20;;;16.30;41.20;;;;;;6197567;23;20390;-83
2021/05/06 11:59:34;;;;;;;1.80;1.50;;;16.00;41.90;;;;;;5988019;23;20432;-84
2021/05/06 12:02:25;;;;;;;1.07;1.00;;;15.50;42.70;;;;;;6044798;23;20450;-86
2021/05/06 12:05:24;;;;;;;4.30;1.50;;;15.70;42.70;;;;;;6166740;23;20438;-85
2021/05/06 12:08:46;;;;;;;3.50;1.80;;;15.50;43.10;;;;;;6147488;23;20401;-89
2021/05/06 12:24:29;;;;;;;2.73;1.30;;;16.60;40.80;;;;;;6267406;22;20471;-90
2021/05/06 12:27:31;;;;;;;1.37;1.10;;;16.50;40.40;;;;;;6270074;23;20443;-89
2021/05/06 12:30:26;;;;;;;1.33;1.23;;;16.80;40.20;;;;;;6237927;23;20487;-90
2021/05/06 12:33:03;;;;;;;3.03;1.60;;;16.70;40.10;;;;;;6239056;22;20461;-87
2021/05/06 12:39:31;;;;;;;1.73;1.53;;;15.90;41.30;;;;;;6218710;23;20454;-89
2021/05/06 12:42:53;;;;;;;2.30;1.40;;;16.10;41.20;;;;;;6215953;23;20437;-88
2021/05/06 12:50:02;;;;;;;3.23;1.37;;;15.70;42.10;;;;;;6237806;23;20748;-88
2021/05/06 12:56:28;;;;;;;2.07;1.33;;;15.70;41.80;;;;;;6233653;23;20491;-89
2021/05/06 12:59:48;;;;;;;1.90;1.40;;;15.70;41.90;;;;;;6221665;23;20492;-88
2021/05/06 13:02:34;;;;;;;2.53;1.67;;;15.70;41.90;;;;;;6098063;23;20525;-86
2021/05/06 13:05:54;;;;;;;1.80;1.40;;;15.90;42.40;;;;;;6078451;23;20525;-87
2021/05/06 13:11:11;;;;;;;1.80;1.20;;;16.40;41.40;;;;;;6217987;23;20467;-86
2021/05/06 13:14:35;;;;;;;;;;;;;;;;;;;;;
2021/05/06 13:17:35;;;;;;;2.17;1.50;;;15.70;42.70;;;;;;6171374;23;20395;-86
2021/05/06 13:21:02;;;;;;;9.00;7.00;;;15.50;43.60;;;;;;6169780;23;20419;-87
2021/05/06 13:24:08;;;;;;;2.73;1.67;;;15.80;43.00;;;;;;6146719;23;20431;-87
2021/05/06 13:27:01;;;;;;;3.40;1.57;;;15.50;43.00;;;;;;6069176;23;20444;-86
2021/05/06 13:30:17;;;;;;;;;;;;;;;;;;;;;
2021/05/06 13:33:37;;;;;;;3.70;1.60;;;15.10;43.60;;;;;;6153523;23;20418;-85
2021/05/06 13:36:56;;;;;;;2.33;1.40;;;15.00;44.00;;;;;;6158626;23;20442;-85
2021/05/06 13:39:38;;;;;;;1.30;1.20;;;15.00;43.80;;;;;;6158434;23;20447;-89
2021/05/06 13:43:01;;;;;;;;;;;;;;;;;;;;;
2021/05/06 13:45:44;;;;;;;2.00;1.30;;;14.90;44.00;;;;;;6155829;23;20446;-86
2021/05/06 13:48:41;;;;;;;1.57;1.20;;;14.90;44.10;;;;;;6153711;23;20508;-87
2021/05/06 13:51:27;;;;;;;1.23;1.13;;;15.20;44.10;;;;;;6189461;23;20463;-87
2021/05/06 13:54:27;;;;;;;2.63;1.60;;;15.70;43.90;;;;;;6241092;23;20421;-87
2021/05/06 13:56:56;;;;;;;3.07;1.40;;;15.40;44.40;;;;;;6218829;23;20744;-86
2021/05/06 13:59:30;;;;;;;3.53;1.33;;;15.10;45.30;;;;;;6217447;23;20436;-86
2021/05/06 14:02:06;;;;;;;1.23;1.13;;;14.90;46.60;;;;;;6218979;23;20467;-88
2021/05/06 14:04:45;;;;;;;3.60;1.63;;;14.80;47.10;;;;;;6217160;23;20474;-88
2021/05/06 14:07:20;;;;;;;2.70;1.63;;;14.60;48.30;;;;;;6220174;23;20420;-88
2021/05/06 14:09:54;;;;;;;2.33;2.13;;;14.50;50.20;;;;;;6222251;23;20960;-87
2021/05/06 14:12:26;;;;;;;3.50;2.00;;;14.50;51.50;;;;;;6223970;23;20434;-87
2021/05/06 14:17:53;;;;;;;3.27;1.87;;;14.40;51.60;;;;;;6222100;23;20494;-88
2021/05/06 14:20:30;;;;;;;4.13;1.90;;;14.30;51.50;;;;;;6226481;22;20534;-89
2021/05/06 14:23:37;;;;;;;2.60;1.57;;;14.30;51.70;;;;;;6237124;22;20483;-90
2021/05/06 14:27:17;;;;;;;2.37;2.17;;;14.20;51.20;;;;;;6231419;23;20915;-89
2021/05/06 14:33:37;;;;;;;1.80;1.60;;;14.80;50.30;;;;;;6198699;23;20400;-89
2021/05/06 14:36:37;;;;;;;;;;;;;;;;;;;;;
2021/05/06 14:39:51;;;;;;;2.90;1.80;;;14.70;50.40;;;;;;6109558;23;20900;-90
2021/05/06 14:46:04;;;;;;;2.07;1.70;;;14.30;51.30;;;;;;6040141;23;20527;-88
2021/05/06 14:48:34;;;;;;;2.90;1.80;;;14.20;51.80;;;;;;6090671;23;20425;-87
2021/05/06 14:51:12;;;;;;;2.03;1.73;;;14.30;52.60;;;;;;6091557;23;20517;-85
2021/05/06 14:53:59;;;;;;;2.03;1.50;;;14.30;53.00;;;;;;6093053;23;20527;-85
2021/05/06 14:56:26;;;;;;;1.80;1.70;;;14.30;53.00;;;;;;6089357;23;20431;-87
2021/05/06 14:58:59;;;;;;;2.40;1.40;;;14.30;53.70;;;;;;6090544;23;20472;-86
2021/05/06 15:05:41;;;;;;;3.40;2.13;;;14.30;53.30;;;;;;6042319;23;20400;-86
2021/05/06 15:08:13;;;;;;;4.10;3.80;;;14.10;53.20;;;;;;6103714;23;20759;-84
2021/05/06 15:10:43;;;;;;;3.83;2.23;;;14.00;53.60;;;;;;6114113;23;20444;-88
2021/05/06 15:13:22;;;;;;;5.43;2.40;;;13.90;53.30;;;;;;6117177;23;20401;-89
2021/05/06 15:15:55;;;;;;;3.30;2.90;;;14.00;53.50;;;;;;6155166;23;20407;-89
2021/05/06 15:18:30;;;;;;;3.70;1.90;;;14.00;54.30;;;;;;6228019;23;20484;-87
2021/05/06 15:20:59;;;;;;;2.40;2.00;;;14.30;54.40;;;;;;6225902;23;20500;-87
2021/05/06 15:23:33;;;;;;;1.87;1.77;;;14.10;55.90;;;;;;6221030;23;20441;-87
2021/05/06 15:29:37;;;;;;;4.57;2.00;;;13.70;57.10;;;;;;6220767;23;20438;-86
2021/05/06 15:32:16;;;;;;;3.77;2.07;;;13.80;59.50;;;;;;6218952;23;20417;-86
2021/05/06 15:35:11;;;;;;;4.63;2.47;;;13.80;59.90;;;;;;6096919;23;20409;-87
2021/05/06 15:37:50;;;;;;;3.17;2.23;;;13.70;61.60;;;;;;6106281;23;20447;-89
2021/05/06 15:44:22;;;;;;;2.00;1.80;;;13.80;62.30;;;;;;6013790;23;20402;-89
2021/05/06 15:47:07;;;;;;;4.30;2.03;;;13.70;62.30;;;;;;6020494;23;20454;-87
2021/05/06 15:52:19;;;;;;;3.30;2.47;;;14.20;61.20;;;;;;6202999;22;20472;-87
2021/05/06 15:54:53;;;;;;;2.73;2.20;;;13.90;63.30;;;;;;6193634;23;20489;-86
2021/05/06 15:57:23;;;;;;;4.07;2.83;;;13.60;63.50;;;;;;6193269;23;20418;-87
2021/05/06 16:00:02;;;;;;;8.70;2.63;;;13.40;65.80;;;;;;6167499;23;20442;-87
2021/05/06 16:02:43;;;;;;;2.80;2.60;;;13.30;67.70;;;;;;6168839;23;20438;-87
2021/05/06 16:05:22;;;;;;;2.57;2.27;;;13.20;70.50;;;;;;6189560;23;20413;-88
2021/05/06 16:07:51;;;;;;;3.53;2.30;;;13.10;71.50;;;;;;6167849;23;20413;-85
2021/05/06 16:10:40;;;;;;;4.10;2.80;;;13.00;73.50;;;;;;6192203;23;20449;-87
2021/05/06 16:13:13;;;;;;;6.20;2.80;;;12.90;74.40;;;;;;6143342;23;20866;-87
2021/05/06 16:15:52;;;;;;;2.80;2.60;;;12.80;74.30;;;;;;6193475;23;20417;-86
2021/05/06 16:18:22;;;;;;;4.60;3.37;;;12.90;77.50;;;;;;6169357;23;20467;-87
2021/05/06 16:20:58;;;;;;;3.23;2.97;;;12.90;79.90;;;;;;6194717;23;20515;-87
2021/05/06 16:23:29;;;;;;;4.60;3.70;;;12.90;80.40;;;;;;6170780;23;20441;-88
2021/05/06 16:26:00;;;;;;;4.77;3.33;;;12.60;81.80;;;;;;6176284;23;20417;-88
2021/05/06 16:28:39;;;;;;;2.60;2.40;;;12.60;85.40;;;;;;6201904;23;20887;-86
2021/05/06 16:31:09;;;;;;;3.40;3.00;;;12.70;88.80;;;;;;6175443;23;20410;-87
2021/05/06 16:33:46;;;;;;;3.97;3.30;;;12.60;90.40;;;;;;6172880;23;20422;-87
2021/05/06 16:36:38;;;;;;;2.83;2.63;;;12.60;90.60;;;;;;6178595;23;20445;-87
2021/05/06 16:45:31;;;;;;;14.93;10.60;;;12.70;91.20;;;;;;6183313;23;20409;-89
2021/05/06 16:52:42;;;;;;;5.60;3.27;;;12.70;91.60;;;;;;5993891;24;20764;-89
2021/05/06 16:55:27;;;;;;;4.87;3.13;;;12.50;91.70;;;;;;6056004;23;20462;-89
2021/05/06 16:58:15;;;;;;;4.17;3.77;;;12.40;91.50;;;;;;6103993;23;20424;-90
2021/05/06 17:01:07;;;;;;;3.87;3.57;;;12.30;90.90;;;;;;6086303;23;20445;-87
2021/05/06 17:03:39;;;;;;;4.57;3.50;;;12.30;91.40;;;;;;6076132;23;20443;-85
2021/05/06 17:06:33;;;;;;;4.23;2.90;;;12.30;91.80;;;;;;6073135;23;20452;-87
2021/05/06 17:09:22;;;;;;;4.90;3.40;;;12.30;91.30;;;;;;6097398;23;20508;-87
2021/05/06 17:12:01;;;;;;;11.47;10.20;;;12.30;91.60;;;;;;6097681;23;20444;-88
2021/05/06 17:14:29;;;;;;;4.00;3.30;;;12.30;91.50;;;;;;6072589;23;20930;-89
2021/05/06 17:17:33;;;;;;;5.00;4.23;;;12.30;92.20;;;;;;6080226;23;20475;-88
2021/05/06 17:20:26;;;;;;;7.43;6.70;;;12.30;93.00;;;;;;6078513;23;20576;-86
2021/05/06 17:23:11;;;;;;;6.50;5.13;;;12.30;93.50;;;;;;6077322;23;20456;-87
2021/05/06 17:33:40;;;;;;;5.70;4.87;;;12.30;92.40;;;;;;6220998;23;20456;-85
2021/05/06 17:36:30;;;;;;;5.97;5.37;;;12.30;92.60;;;;;;6199507;23;21047;-88
2021/05/06 17:39:41;;;;;;;11.13;10.00;;;12.30;92.80;;;;;;6192447;23;20551;-86
2021/05/06 17:43:11;;;;;;;6.53;4.90;;;12.30;93.10;;;;;;6191374;23;20468;-85
2021/05/06 17:46:11;;;;;;;4.87;4.30;;;12.40;93.10;;;;;;6193598;23;20400;-88
2021/05/06 17:49:16;;;;;;;4.00;3.33;;;12.30;92.90;;;;;;6211631;23;20503;-88
2021/05/06 17:52:01;;;;;;;4.23;3.40;;;12.40;92.30;;;;;;6235837;23;20413;-90
2021/05/06 17:55:57;;;;;;;5.10;3.30;;;12.40;92.60;;;;;;6212265;23;20424;-90
2021/05/06 17:58:52;;;;;;;3.30;3.00;;;12.40;93.70;;;;;;6126012;23;20412;-91
2021/05/06 18:01:53;;;;;;;3.70;3.40;;;12.40;93.40;;;;;;6152271;23;20931;-89
2021/05/06 18:04:59;;;;;;;3.27;2.93;;;12.40;92.30;;;;;;6200732;23;20427;-86
2021/05/06 18:08:06;;;;;;;3.70;2.90;;;12.20;91.40;;;;;;6221803;23;20432;-89
2021/05/06 18:11:20;;;;;;;3.60;3.30;;;12.20;91.30;;;;;;6197882;23;20421;-88
2021/05/06 18:14:19;;;;;;;4.10;3.80;;;12.20;92.00;;;;;;6214903;23;20380;-89
2021/05/06 18:17:57;;;;;;;3.93;3.57;;;12.10;93.30;;;;;;6195181;23;20417;-90
2021/05/06 18:23:47;;;;;;;8.03;7.23;;;12.00;94.20;;;;;;6190568;23;20417;-87
2021/05/06 18:26:25;;;;;;;6.10;5.60;;;12.00;94.50;;;;;;6165433;23;20552;-87
2021/05/06 18:29:08;;;;;;;4.90;4.50;;;12.00;94.20;;;;;;6170708;23;20499;-89
2021/05/06 18:32:29;;;;;;;4.87;4.20;;;11.90;94.30;;;;;;6220087;23;20401;-87
2021/05/06 18:35:11;;;;;;;4.37;3.87;;;11.90;94.00;;;;;;6220805;23;20428;-86
2021/05/06 18:37:41;;;;;;;5.80;4.87;;;11.90;93.70;;;;;;6225022;23;20405;-86
2021/05/06 18:40:12;;;;;;;4.80;4.10;;;11.80;93.80;;;;;;6223710;23;20435;-84
2021/05/06 18:42:47;;;;;;;13.00;10.90;;;11.80;94.00;;;;;;6222518;23;20459;-84
2021/05/06 18:45:27;;;;;;;5.60;5.10;;;11.90;94.00;;;;;;6228180;23;20393;-88
2021/05/06 18:48:10;;;;;;;8.90;7.30;;;11.80;94.10;;;;;;6210980;23;20400;-90
2021/05/06 18:54:26;;;;;;;5.50;4.43;;;11.80;94.40;;;;;;6197007;23;20405;-89
2021/05/06 18:57:24;;;;;;;4.83;4.30;;;11.80;94.70;;;;;;6241156;23;20416;-89
2021/05/06 19:00:03;;;;;;;4.57;4.13;;;11.80;94.90;;;;;;6238560;23;20428;-86
2021/05/06 19:03:07;;;;;;;4.93;4.50;;;11.70;95.20;;;;;;6230846;23;20436;-85
2021/05/06 19:05:46;;;;;;;4.63;4.23;;;11.70;95.50;;;;;;6199565;23;20417;-87
2021/05/06 19:08:16;;;;;;;4.30;3.90;;;11.70;95.60;;;;;;6223477;23;20423;-87
2021/05/06 19:10:55;;;;;;;5.80;4.77;;;11.60;95.80;;;;;;6223550;23;20462;-87
2021/05/06 19:14:05;;;;;;;;;;;;;;;;;;;;;
2021/05/06 19:17:08;;;;;;;5.00;4.50;;;11.60;96.20;;;;;;6223514;23;20475;-91
2021/05/06 19:19:53;;;;;;;4.57;4.17;;;11.50;95.90;;;;;;6220330;23;20456;-87
2021/05/06 19:22:58;;;;;;;4.23;3.83;;;11.50;95.60;;;;;;6221569;23;20467;-87
2021/05/06 19:25:39;;;;;;;4.17;3.77;;;11.50;95.70;;;;;;6192153;23;20444;-88
2021/05/06 19:28:21;;;;;;;4.50;3.67;;;11.50;95.80;;;;;;6223508;23;20413;-85
2021/05/06 19:30:53;;;;;;;5.53;4.30;;;11.50;95.70;;;;;;6199163;23;20431;-89
2021/05/06 19:33:28;;;;;;;5.60;3.73;;;11.60;95.60;;;;;;6223501;23;20444;-87
2021/05/06 19:36:19;;;;;;;;;;;;;;;;;;;;;